Time;durP1;ratioP1;P1;durP2;ratioP2;P2;SDS_P1;SDS_P2;PMS_P1;PMS_P2;Temp;Humidity;BMP_temperature;BMP_pressure;BME280_temperature;BME280_humidity;BME280_pressure;Samples;Min_cycle;Max_cycle;Signal;HPM_P1;HPM_P2
2021/11/16 00:00:49;;;;;;;8.38;4.89;;;;;;;;;;360054;147;857313;-60
2021/11/16 00:01:51;;;;;;;10.98;6.71;;;;;;;;;;361101;147;857771;-61
2021/11/16 00:02:53;;;;;;;10.31;5.16;;;;;;;;;;362236;148;857189;-61
2021/11/16 00:03:55;;;;;;;10.24;5.71;;;;;;;;;;361675;148;857196;-59
2021/11/16 00:04:56;;;;;;;10.79;6.31;;;;;;;;;;360378;147;865072;-60
2021/11/16 00:05:58;;;;;;;13.81;6.96;;;;;;;;;;360549;147;857280;-60
2021/11/16 00:07:00;;;;;;;16.62;7.49;;;;;;;;;;360270;148;857908;-60
2021/11/16 00:08:02;;;;;;;16.05;6.45;;;;;;;;;;361384;148;865548;-60
2021/11/16 00:09:04;;;;;;;15.71;6.83;;;;;;;;;;360740;147;857736;-59
2021/11/16 00:10:06;;;;;;;14.64;7.05;;;;;;;;;;359012;147;857478;-60
2021/11/16 00:11:08;;;;;;;13.19;6.83;;;;;;;;;;359023;148;865962;-62
2021/11/16 00:12:10;;;;;;;9.87;4.63;;;;;;;;;;361408;148;857478;-62
2021/11/16 00:13:12;;;;;;;12.75;4.94;;;;;;;;;;359885;147;857276;-61
2021/11/16 00:14:15;;;;;;;9.46;4.89;;;;;;;;;;360128;148;858235;-61
2021/11/16 00:15:17;;;;;;;7.69;3.85;;;;;;;;;;360322;148;862688;-61
2021/11/16 00:16:20;;;;;;;11.81;5.19;;;;;;;;;;360888;147;858320;-59
2021/11/16 00:17:21;;;;;;;9.57;5.13;;;;;;;;;;360193;148;857749;-60
2021/11/16 00:18:27;;;;;;;16.86;5.81;;;;;;;;;;360205;148;857126;-60
2021/11/16 00:19:27;;;;;;;18.48;5.99;;;;;;;;;;361722;147;866298;-61
2021/11/16 00:20:31;;;;;;;9.73;5.31;;;;;;;;;;363056;147;857414;-61
2021/11/16 00:21:33;;;;;;;16.41;5.87;;;;;;;;;;359247;148;857214;-60
2021/11/16 00:22:34;;;;;;;23.61;8.62;;;;;;;;;;361754;148;865108;-60
2021/11/16 00:23:37;;;;;;;9.46;4.99;;;;;;;;;;362182;147;864608;-60
2021/11/16 00:24:43;;;;;;;14.85;6.02;;;;;;;;;;359954;148;865196;-61
2021/11/16 00:25:43;;;;;;;20.31;6.11;;;;;;;;;;360449;147;866846;-61
2021/11/16 00:26:45;;;;;;;11.79;5.43;;;;;;;;;;361219;146;857244;-60
2021/11/16 00:27:47;;;;;;;12.27;5.74;;;;;;;;;;359897;148;857791;-59
2021/11/16 00:28:48;;;;;;;16.39;5.25;;;;;;;;;;361465;148;858256;-60
2021/11/16 00:29:50;;;;;;;14.44;6.91;;;;;;;;;;361100;147;865072;-60
2021/11/16 00:30:53;;;;;;;9.91;5.90;;;;;;;;;;360627;147;859998;-60
2021/11/16 00:31:54;;;;;;;19.39;7.42;;;;;;;;;;360423;148;857368;-61
2021/11/16 00:32:56;;;;;;;15.72;6.33;;;;;;;;;;362274;148;857189;-60
2021/11/16 00:33:58;;;;;;;16.58;5.87;;;;;;;;;;360086;147;864930;-60
2021/11/16 00:35:00;;;;;;;9.65;4.81;;;;;;;;;;359690;148;857244;-60
2021/11/16 00:36:02;;;;;;;9.65;4.84;;;;;;;;;;359775;148;857267;-60
2021/11/16 00:37:04;;;;;;;13.93;4.93;;;;;;;;;;361843;147;859579;-60
2021/11/16 00:38:06;;;;;;;11.31;4.16;;;;;;;;;;361451;148;857436;-60
2021/11/16 00:39:08;;;;;;;10.13;4.46;;;;;;;;;;360958;148;866801;-60
2021/11/16 00:40:11;;;;;;;15.61;5.39;;;;;;;;;;361372;147;857399;-60
2021/11/16 00:41:13;;;;;;;7.72;4.37;;;;;;;;;;361345;147;858246;-60
2021/11/16 00:42:15;;;;;;;5.76;3.80;;;;;;;;;;359204;148;857758;-60
2021/11/16 00:43:16;;;;;;;6.90;4.00;;;;;;;;;;360410;148;864818;-60
2021/11/16 00:44:18;;;;;;;11.59;4.90;;;;;;;;;;362766;147;865962;-61
2021/11/16 00:45:20;;;;;;;8.29;4.51;;;;;;;;;;360195;148;857241;-60
2021/11/16 00:46:22;;;;;;;7.42;4.68;;;;;;;;;;360384;148;867148;-60
2021/11/16 00:47:23;;;;;;;6.79;4.19;;;;;;;;;;361524;147;858168;-60
2021/11/16 00:48:25;;;;;;;8.43;4.44;;;;;;;;;;361408;148;860476;-60
2021/11/16 00:49:27;;;;;;;7.20;4.32;;;;;;;;;;360231;146;858803;-60
2021/11/16 00:50:29;;;;;;;6.68;4.20;;;;;;;;;;360914;147;859066;-60
2021/11/16 00:51:31;;;;;;;6.23;4.08;;;;;;;;;;361869;147;861033;-60
2021/11/16 00:52:33;;;;;;;6.69;4.33;;;;;;;;;;358637;147;857609;-60
2021/11/16 00:53:35;;;;;;;30.59;10.18;;;;;;;;;;360537;148;857395;-60
2021/11/16 00:54:36;;;;;;;11.69;5.07;;;;;;;;;;360665;148;864808;-60
2021/11/16 00:55:38;;;;;;;8.16;3.81;;;;;;;;;;361274;147;857242;-60
2021/11/16 00:56:40;;;;;;;6.40;4.07;;;;;;;;;;358842;148;857361;-59
2021/11/16 00:57:42;;;;;;;7.07;3.91;;;;;;;;;;363289;148;857626;-60
2021/11/16 00:58:44;;;;;;;10.45;4.28;;;;;;;;;;362689;146;857956;-59
2021/11/16 00:59:45;;;;;;;4.96;3.54;;;;;;;;;;359352;148;857309;-60
2021/11/16 01:00:47;;;;;;;4.17;3.00;;;;;;;;;;363302;148;864845;-59
2021/11/16 01:01:49;;;;;;;3.10;2.47;;;;;;;;;;361806;148;864927;-60
2021/11/16 01:02:51;;;;;;;3.93;2.23;;;;;;;;;;360268;148;858251;-59
2021/11/16 01:03:53;;;;;;;6.85;3.36;;;;;;;;;;358900;148;858797;-62
2021/11/16 01:04:55;;;;;;;3.61;2.17;;;;;;;;;;359971;148;865183;-59
2021/11/16 01:05:56;;;;;;;4.22;2.75;;;;;;;;;;360524;147;859275;-60
2021/11/16 01:07:00;;;;;;;6.49;3.90;;;;;;;;;;350999;151;865514;-61
2021/11/16 01:08:02;;;;;;;5.89;3.21;;;;;;;;;;346703;148;865083;-61
2021/11/16 01:09:03;;;;;;;4.59;2.68;;;;;;;;;;359203;147;865033;-60
2021/11/16 01:10:06;;;;;;;5.50;3.73;;;;;;;;;;360600;148;865116;-61
2021/11/16 01:11:07;;;;;;;10.06;4.83;;;;;;;;;;360011;148;858379;-61
2021/11/16 01:12:10;;;;;;;3.86;2.63;;;;;;;;;;360851;148;858500;-60
2021/11/16 01:13:12;;;;;;;8.73;4.21;;;;;;;;;;350417;150;865720;-61
2021/11/16 01:14:15;;;;;;;3.39;2.37;;;;;;;;;;354669;148;858206;-60
2021/11/16 01:15:17;;;;;;;3.46;2.70;;;;;;;;;;360020;148;858915;-61
2021/11/16 01:16:18;;;;;;;5.39;3.11;;;;;;;;;;360734;147;866742;-61
2021/11/16 01:17:20;;;;;;;38.49;4.69;;;;;;;;;;360601;147;858662;-61
2021/11/16 01:18:22;;;;;;;22.75;7.67;;;;;;;;;;360289;148;859721;-61
2021/11/16 01:19:24;;;;;;;8.25;4.05;;;;;;;;;;361536;146;857241;-61
2021/11/16 01:20:26;;;;;;;6.90;3.53;;;;;;;;;;360493;147;857363;-61
2021/11/16 01:21:28;;;;;;;10.50;4.43;;;;;;;;;;359243;148;857298;-61
2021/11/16 01:22:29;;;;;;;27.02;7.69;;;;;;;;;;360607;147;857197;-61
2021/11/16 01:23:31;;;;;;;8.42;4.24;;;;;;;;;;362746;147;859536;-61
2021/11/16 01:24:32;;;;;;;5.94;3.63;;;;;;;;;;361169;147;857361;-61
2021/11/16 01:25:37;;;;;;;3.56;2.41;;;;;;;;;;360569;148;858896;-60
2021/11/16 01:26:37;;;;;;;3.81;2.95;;;;;;;;;;362010;147;858959;-62
2021/11/16 01:27:39;;;;;;;3.67;2.28;;;;;;;;;;359429;147;865034;-61
2021/11/16 01:28:41;;;;;;;3.51;2.80;;;;;;;;;;359031;148;865418;-61
2021/11/16 01:29:44;;;;;;;4.48;3.01;;;;;;;;;;360664;147;864831;-61
2021/11/16 01:30:47;;;;;;;3.67;2.87;;;;;;;;;;361178;147;859390;-61
2021/11/16 01:31:51;;;;;;;6.81;3.14;;;;;;;;;;360163;147;857745;-61
2021/11/16 01:33:03;;;;;;;9.55;3.17;;;;;;;;;;359113;148;857699;-61
2021/11/16 01:33:57;;;;;;;5.57;3.25;;;;;;;;;;358723;147;857329;-61
2021/11/16 01:34:59;;;;;;;6.08;2.46;;;;;;;;;;360935;147;858384;-61
2021/11/16 01:36:01;;;;;;;3.55;2.99;;;;;;;;;;361439;148;857288;-60
2021/11/16 01:37:03;;;;;;;4.48;2.92;;;;;;;;;;358029;148;857300;-60
2021/11/16 01:38:05;;;;;;;5.11;2.97;;;;;;;;;;360613;147;864892;-60
2021/11/16 01:39:07;;;;;;;4.84;3.19;;;;;;;;;;360415;147;858976;-60
2021/11/16 01:40:11;;;;;;;5.88;3.02;;;;;;;;;;359258;148;857482;-60
2021/11/16 01:41:13;;;;;;;6.87;3.50;;;;;;;;;;360875;148;857473;-60
2021/11/16 01:42:14;;;;;;;26.31;10.15;;;;;;;;;;360261;147;857833;-61
2021/11/16 01:43:16;;;;;;;18.90;7.06;;;;;;;;;;354693;150;864871;-60
2021/11/16 01:44:18;;;;;;;5.91;3.75;;;;;;;;;;347211;151;857400;-60
2021/11/16 01:45:20;;;;;;;11.84;4.68;;;;;;;;;;346782;151;858224;-60
2021/11/16 01:46:22;;;;;;;6.38;4.04;;;;;;;;;;344913;154;866024;-61
2021/11/16 01:47:24;;;;;;;5.19;3.33;;;;;;;;;;352790;151;857275;-61
2021/11/16 01:48:26;;;;;;;6.15;4.14;;;;;;;;;;354792;149;859057;-60
2021/11/16 01:49:27;;;;;;;5.27;3.46;;;;;;;;;;353197;149;864943;-62
2021/11/16 01:50:29;;;;;;;7.65;3.90;;;;;;;;;;350808;151;866267;-60
2021/11/16 01:51:31;;;;;;;9.07;4.23;;;;;;;;;;352757;151;859104;-59
2021/11/16 01:52:33;;;;;;;8.74;3.69;;;;;;;;;;352843;149;857351;-60
2021/11/16 01:53:35;;;;;;;4.74;2.98;;;;;;;;;;355180;151;865589;-60
2021/11/16 01:54:36;;;;;;;7.46;3.51;;;;;;;;;;354362;151;864764;-60
2021/11/16 01:55:38;;;;;;;19.61;6.81;;;;;;;;;;355360;149;858845;-60
2021/11/16 01:56:41;;;;;;;12.81;6.25;;;;;;;;;;352199;149;857415;-60
2021/11/16 01:57:43;;;;;;;11.05;4.99;;;;;;;;;;348416;153;865179;-60
2021/11/16 01:58:44;;;;;;;15.80;5.75;;;;;;;;;;353113;151;857300;-59
2021/11/16 01:59:46;;;;;;;11.31;5.46;;;;;;;;;;354355;149;865009;-60
2021/11/16 02:00:48;;;;;;;7.64;3.56;;;;;;;;;;353712;151;857207;-60
2021/11/16 02:01:49;;;;;;;21.97;7.00;;;;;;;;;;349870;151;864838;-60
2021/11/16 02:02:52;;;;;;;16.49;7.49;;;;;;;;;;354394;149;857318;-61
2021/11/16 02:03:53;;;;;;;19.71;7.39;;;;;;;;;;353788;149;857343;-60
2021/11/16 02:04:55;;;;;;;7.36;3.75;;;;;;;;;;354828;151;857636;-60
2021/11/16 02:05:57;;;;;;;6.23;4.11;;;;;;;;;;354404;151;864836;-60
2021/11/16 02:06:59;;;;;;;11.61;5.65;;;;;;;;;;353523;149;857310;-60
2021/11/16 02:08:01;;;;;;;9.84;4.72;;;;;;;;;;355871;149;858205;-60
2021/11/16 02:09:03;;;;;;;9.92;4.88;;;;;;;;;;355193;149;865881;-60
2021/11/16 02:10:05;;;;;;;8.54;4.99;;;;;;;;;;354970;149;857302;-59
2021/11/16 02:11:07;;;;;;;7.05;4.72;;;;;;;;;;355650;149;859341;-60
2021/11/16 02:12:09;;;;;;;6.32;3.11;;;;;;;;;;352171;151;857365;-60
2021/11/16 02:13:10;;;;;;;7.34;3.86;;;;;;;;;;353757;149;862308;-60
2021/11/16 02:14:13;;;;;;;5.81;3.69;;;;;;;;;;353716;149;865387;-60
2021/11/16 02:15:14;;;;;;;6.58;4.47;;;;;;;;;;351547;153;864907;-60
2021/11/16 02:16:17;;;;;;;7.19;4.50;;;;;;;;;;349423;151;868327;-60
2021/11/16 02:17:18;;;;;;;9.11;3.82;;;;;;;;;;351737;152;859522;-60
2021/11/16 02:18:20;;;;;;;16.09;7.63;;;;;;;;;;350341;152;864956;-60
2021/11/16 02:19:22;;;;;;;9.35;5.43;;;;;;;;;;348862;152;866289;-60
2021/11/16 02:20:28;;;;;;;11.97;6.33;;;;;;;;;;349544;151;859368;-60
2021/11/16 02:21:30;;;;;;;12.61;5.83;;;;;;;;;;347580;151;865858;-60
2021/11/16 02:22:32;;;;;;;5.96;4.16;;;;;;;;;;348759;153;859028;-60
2021/11/16 02:23:34;;;;;;;6.99;3.74;;;;;;;;;;353168;150;866099;-60
2021/11/16 02:24:36;;;;;;;5.30;3.60;;;;;;;;;;351431;151;865920;-60
2021/11/16 02:25:37;;;;;;;6.31;3.84;;;;;;;;;;349428;152;857798;-61
2021/11/16 02:26:39;;;;;;;5.85;4.05;;;;;;;;;;351851;152;865246;-60
2021/11/16 02:27:40;;;;;;;7.83;4.47;;;;;;;;;;351087;151;864897;-60
2021/11/16 02:28:45;;;;;;;4.36;3.22;;;;;;;;;;347760;152;857315;-60
2021/11/16 02:29:46;;;;;;;4.08;3.47;;;;;;;;;;354803;151;864743;-60
2021/11/16 02:30:48;;;;;;;3.88;3.43;;;;;;;;;;354929;151;865012;-60
2021/11/16 02:31:53;;;;;;;4.90;3.84;;;;;;;;;;353768;150;864981;-60
2021/11/16 02:32:55;;;;;;;5.23;3.77;;;;;;;;;;351680;152;858801;-60
2021/11/16 02:33:57;;;;;;;4.24;3.62;;;;;;;;;;349374;152;858588;-60
2021/11/16 02:34:59;;;;;;;6.65;3.90;;;;;;;;;;349646;152;864718;-60
2021/11/16 02:36:00;;;;;;;4.10;3.47;;;;;;;;;;352155;151;857314;-60
2021/11/16 02:37:02;;;;;;;4.84;3.74;;;;;;;;;;351368;152;857281;-60
2021/11/16 02:38:04;;;;;;;4.58;3.41;;;;;;;;;;349481;151;857496;-60
2021/11/16 02:39:05;;;;;;;5.98;3.73;;;;;;;;;;351283;151;864994;-61
2021/11/16 02:40:09;;;;;;;5.88;3.62;;;;;;;;;;349051;152;866597;-61
2021/11/16 02:41:10;;;;;;;7.79;4.74;;;;;;;;;;351139;152;857752;-60
2021/11/16 02:42:12;;;;;;;5.05;3.50;;;;;;;;;;351658;152;860893;-60
2021/11/16 02:43:14;;;;;;;5.04;3.49;;;;;;;;;;349668;152;865594;-60
2021/11/16 02:44:17;;;;;;;6.03;3.55;;;;;;;;;;347035;152;857280;-60
2021/11/16 02:45:19;;;;;;;3.89;2.90;;;;;;;;;;347473;151;866567;-60
2021/11/16 02:46:22;;;;;;;4.61;3.58;;;;;;;;;;343851;153;860763;-60
2021/11/16 02:47:24;;;;;;;4.04;3.23;;;;;;;;;;346103;154;859012;-59
2021/11/16 02:48:25;;;;;;;5.12;3.18;;;;;;;;;;344398;153;864751;-60
2021/11/16 02:49:27;;;;;;;5.48;3.57;;;;;;;;;;341948;155;866091;-60
2021/11/16 02:50:29;;;;;;;6.56;3.30;;;;;;;;;;340558;154;858606;-60
2021/11/16 02:51:32;;;;;;;6.37;4.06;;;;;;;;;;349672;153;859563;-60
2021/11/16 02:52:36;;;;;;;5.04;3.62;;;;;;;;;;354045;149;864830;-60
2021/11/16 02:53:38;;;;;;;5.19;3.56;;;;;;;;;;357104;149;859513;-60
2021/11/16 02:54:39;;;;;;;6.19;4.16;;;;;;;;;;356198;150;858297;-60
2021/11/16 02:55:41;;;;;;;5.26;3.90;;;;;;;;;;356679;148;857275;-60
2021/11/16 02:56:43;;;;;;;4.35;3.33;;;;;;;;;;355384;149;864681;-61
2021/11/16 02:57:45;;;;;;;4.25;3.33;;;;;;;;;;354750;150;857124;-61
2021/11/16 02:58:46;;;;;;;6.59;4.03;;;;;;;;;;356043;148;864919;-60
2021/11/16 02:59:48;;;;;;;6.56;3.87;;;;;;;;;;354837;148;857201;-60
2021/11/16 03:00:51;;;;;;;4.55;2.84;;;;;;;;;;355631;148;857409;-60
2021/11/16 03:01:52;;;;;;;7.95;3.66;;;;;;;;;;354702;148;866452;-61
2021/11/16 03:02:54;;;;;;;5.49;3.09;;;;;;;;;;354442;148;866571;-60
2021/11/16 03:03:56;;;;;;;4.56;2.87;;;;;;;;;;355786;149;864729;-60
2021/11/16 03:04:57;;;;;;;4.35;3.19;;;;;;;;;;354131;150;857327;-61
2021/11/16 03:05:59;;;;;;;5.91;3.78;;;;;;;;;;356955;150;857403;-60
2021/11/16 03:07:02;;;;;;;6.40;4.03;;;;;;;;;;354998;148;857213;-60
2021/11/16 03:08:11;;;;;;;4.54;3.49;;;;;;;;;;353852;149;859590;-60
2021/11/16 03:09:14;;;;;;;8.82;4.76;;;;;;;;;;354059;150;857507;-61
2021/11/16 03:10:17;;;;;;;4.64;3.36;;;;;;;;;;355263;148;857135;-61
2021/11/16 03:11:19;;;;;;;5.64;4.29;;;;;;;;;;354769;148;857303;-60
2021/11/16 03:12:21;;;;;;;6.21;3.79;;;;;;;;;;354806;150;865428;-61
2021/11/16 03:13:24;;;;;;;7.38;4.72;;;;;;;;;;354447;148;857527;-60
2021/11/16 03:14:26;;;;;;;6.37;3.68;;;;;;;;;;355235;150;864640;-61
2021/11/16 03:15:27;;;;;;;7.97;4.07;;;;;;;;;;356379;150;865334;-60
2021/11/16 03:16:33;;;;;;;4.99;3.28;;;;;;;;;;357467;150;857278;-60
2021/11/16 03:17:33;;;;;;;4.79;3.54;;;;;;;;;;354069;148;857315;-60
2021/11/16 03:18:35;;;;;;;7.91;3.91;;;;;;;;;;349402;153;857349;-59
2021/11/16 03:19:36;;;;;;;9.36;4.12;;;;;;;;;;348607;150;865225;-60
2021/11/16 03:20:38;;;;;;;8.06;3.76;;;;;;;;;;355714;148;857382;-59
2021/11/16 03:21:42;;;;;;;7.86;4.20;;;;;;;;;;356016;150;864882;-60
2021/11/16 03:22:50;;;;;;;17.86;6.37;;;;;;;;;;354283;150;857471;-61
2021/11/16 03:23:53;;;;;;;17.06;6.47;;;;;;;;;;352227;150;858561;-60
2021/11/16 03:24:56;;;;;;;35.93;10.09;;;;;;;;;;355888;149;857200;-60
2021/11/16 03:26:01;;;;;;;19.21;6.87;;;;;;;;;;355223;150;858091;-60
2021/11/16 03:27:07;;;;;;;16.02;6.81;;;;;;;;;;355398;150;857221;-58
2021/11/16 03:28:07;;;;;;;19.02;6.79;;;;;;;;;;355310;148;858557;-60
2021/11/16 03:29:11;;;;;;;10.31;4.91;;;;;;;;;;353933;149;857521;-60
2021/11/16 03:30:13;;;;;;;8.39;4.49;;;;;;;;;;352234;150;858730;-60
2021/11/16 03:32:35;;;;;;;8.52;4.68;;;;;;;;;;354294;148;857315;-60
2021/11/16 03:33:39;;;;;;;6.24;3.94;;;;;;;;;;352811;150;859926;-63
2021/11/16 03:34:41;;;;;;;5.95;4.66;;;;;;;;;;356758;149;857291;-60
2021/11/16 03:35:42;;;;;;;9.51;5.29;;;;;;;;;;353812;149;859794;-61
2021/11/16 03:36:45;;;;;;;6.32;3.41;;;;;;;;;;352119;150;857773;-60
2021/11/16 03:37:49;;;;;;;7.83;4.11;;;;;;;;;;351614;150;864801;-59
2021/11/16 03:38:50;;;;;;;4.86;3.52;;;;;;;;;;355986;148;857256;-60
2021/11/16 03:39:52;;;;;;;3.91;3.16;;;;;;;;;;353965;149;865175;-59
2021/11/16 03:40:55;;;;;;;5.13;3.37;;;;;;;;;;353814;150;865425;-62
2021/11/16 03:41:57;;;;;;;4.19;3.66;;;;;;;;;;354289;148;858773;-62
2021/11/16 03:42:59;;;;;;;6.19;4.04;;;;;;;;;;354811;149;857397;-59
2021/11/16 03:44:01;;;;;;;6.35;4.29;;;;;;;;;;359252;148;866365;-62
2021/11/16 03:45:03;;;;;;;5.08;4.26;;;;;;;;;;359889;148;858735;-62
2021/11/16 03:46:04;;;;;;;5.60;4.45;;;;;;;;;;360550;147;864996;-62
2021/11/16 03:47:06;;;;;;;7.78;3.71;;;;;;;;;;362175;147;857432;-60
2021/11/16 03:48:08;;;;;;;5.01;3.84;;;;;;;;;;362217;148;857270;-60
2021/11/16 03:49:12;;;;;;;7.67;4.53;;;;;;;;;;360394;148;865803;-61
2021/11/16 03:50:15;;;;;;;5.42;4.21;;;;;;;;;;359819;147;859817;-60
2021/11/16 03:51:17;;;;;;;3.34;2.71;;;;;;;;;;357542;148;864752;-60
2021/11/16 03:52:22;;;;;;;4.91;3.85;;;;;;;;;;360976;148;857651;-60
2021/11/16 03:53:22;;;;;;;4.30;3.56;;;;;;;;;;359838;147;864798;-60
2021/11/16 03:54:24;;;;;;;8.32;4.56;;;;;;;;;;360479;147;856974;-60
2021/11/16 03:55:27;;;;;;;8.94;3.49;;;;;;;;;;360158;148;857261;-60
2021/11/16 03:56:29;;;;;;;6.38;3.92;;;;;;;;;;361133;147;866522;-60
2021/11/16 03:57:30;;;;;;;7.66;4.55;;;;;;;;;;359725;147;858949;-60
2021/11/16 03:58:32;;;;;;;7.97;5.01;;;;;;;;;;359100;148;864839;-60
2021/11/16 03:59:36;;;;;;;7.94;4.89;;;;;;;;;;361473;148;862545;-62
2021/11/16 04:00:46;;;;;;;4.96;3.66;;;;;;;;;;361602;145;857119;-61
2021/11/16 04:01:48;;;;;;;6.83;4.98;;;;;;;;;;360405;148;866617;-60
2021/11/16 04:02:50;;;;;;;6.14;4.68;;;;;;;;;;362394;148;857335;-60
2021/11/16 04:03:52;;;;;;;4.55;3.19;;;;;;;;;;359408;147;865137;-60
2021/11/16 04:04:54;;;;;;;5.87;4.50;;;;;;;;;;356500;147;865727;-60
2021/11/16 04:05:56;;;;;;;8.05;5.07;;;;;;;;;;351048;151;858781;-60
2021/11/16 04:06:58;;;;;;;7.29;4.87;;;;;;;;;;345131;154;865708;-62
2021/11/16 04:07:59;;;;;;;6.34;4.92;;;;;;;;;;349100;153;857668;-62
2021/11/16 04:09:01;;;;;;;6.15;4.45;;;;;;;;;;353866;151;862778;-62
2021/11/16 04:10:08;;;;;;;6.45;4.31;;;;;;;;;;354855;151;859753;-62
2021/11/16 04:11:08;;;;;;;8.29;5.09;;;;;;;;;;353936;150;865420;-62
2021/11/16 04:12:10;;;;;;;7.26;4.69;;;;;;;;;;352891;150;857761;-63
2021/11/16 04:13:12;;;;;;;7.60;4.68;;;;;;;;;;354611;151;865550;-60
2021/11/16 04:14:14;;;;;;;6.43;4.79;;;;;;;;;;348060;152;866197;-59
2021/11/16 04:15:16;;;;;;;6.97;4.54;;;;;;;;;;351850;151;857407;-60
2021/11/16 04:16:19;;;;;;;6.83;5.45;;;;;;;;;;351528;151;864733;-59
2021/11/16 04:17:21;;;;;;;5.27;3.25;;;;;;;;;;352925;151;858628;-59
2021/11/16 04:18:23;;;;;;;6.29;4.71;;;;;;;;;;347232;151;865689;-62
2021/11/16 04:19:24;;;;;;;5.35;4.11;;;;;;;;;;350463;150;864912;-62
2021/11/16 04:20:29;;;;;;;6.75;4.55;;;;;;;;;;343265;154;859202;-63
2021/11/16 04:21:30;;;;;;;8.19;5.12;;;;;;;;;;352621;151;860244;-62
2021/11/16 04:22:32;;;;;;;9.00;4.43;;;;;;;;;;354685;150;864594;-60
2021/11/16 04:23:34;;;;;;;5.41;3.78;;;;;;;;;;351037;151;857367;-60
2021/11/16 04:24:35;;;;;;;11.25;5.19;;;;;;;;;;351459;151;860448;-60
2021/11/16 04:25:38;;;;;;;5.42;4.10;;;;;;;;;;349387;151;865949;-61
2021/11/16 04:26:39;;;;;;;4.61;3.56;;;;;;;;;;346531;153;864860;-61
2021/11/16 04:27:41;;;;;;;7.54;4.55;;;;;;;;;;347021;154;857190;-60
2021/11/16 04:28:43;;;;;;;7.08;4.91;;;;;;;;;;351888;149;866525;-61
2021/11/16 04:29:44;;;;;;;5.05;3.47;;;;;;;;;;346666;151;866070;-61
2021/11/16 04:30:46;;;;;;;9.24;3.49;;;;;;;;;;348550;153;863284;-60
2021/11/16 04:31:48;;;;;;;4.75;3.65;;;;;;;;;;346887;152;867951;-60
2021/11/16 04:32:50;;;;;;;6.73;4.13;;;;;;;;;;352134;150;857271;-67
2021/11/16 04:33:52;;;;;;;9.97;5.14;;;;;;;;;;350790;151;865027;-67
2021/11/16 04:34:53;;;;;;;9.11;4.66;;;;;;;;;;349985;151;857235;-67
2021/11/16 04:35:55;;;;;;;5.93;3.10;;;;;;;;;;352110;150;863127;-67
2021/11/16 04:36:57;;;;;;;6.85;4.89;;;;;;;;;;352184;150;857287;-67
2021/11/16 04:37:59;;;;;;;5.83;4.04;;;;;;;;;;351260;151;857249;-67
2021/11/16 04:39:02;;;;;;;5.70;3.81;;;;;;;;;;349798;151;860459;-67
2021/11/16 04:40:05;;;;;;;6.64;4.46;;;;;;;;;;349326;151;858877;-66
2021/11/16 04:41:07;;;;;;;6.53;4.18;;;;;;;;;;350423;151;857773;-66
2021/11/16 04:42:09;;;;;;;6.88;4.63;;;;;;;;;;350328;151;859212;-67
2021/11/16 04:43:13;;;;;;;7.77;4.73;;;;;;;;;;352043;150;864767;-67
2021/11/16 04:44:17;;;;;;;8.07;4.72;;;;;;;;;;353918;151;857402;-67
2021/11/16 04:45:22;;;;;;;7.04;5.11;;;;;;;;;;359711;148;859345;-67
2021/11/16 04:46:24;;;;;;;6.42;4.48;;;;;;;;;;358947;148;859542;-66
2021/11/16 04:47:34;;;;;;;6.55;4.05;;;;;;;;;;359254;147;864658;-67
2021/11/16 04:48:51;;;;;;;7.76;4.27;;;;;;;;;;361853;148;858726;-66
2021/11/16 04:49:55;;;;;;;6.19;4.42;;;;;;;;;;358167;148;857563;-67
2021/11/16 04:52:19;;;;;;;6.26;4.66;;;;;;;;;;359723;148;865321;-67
2021/11/16 04:59:48;;;;;;;6.88;4.86;;;;;;;;;;350004;152;857256;-67
2021/11/16 05:03:26;;;;;;;6.78;4.24;;;;;;;;;;357138;148;857116;-67
2021/11/16 05:04:27;;;;;;;6.28;4.45;;;;;;;;;;360902;147;857630;-68
2021/11/16 05:05:29;;;;;;;6.16;4.43;;;;;;;;;;363680;147;865569;-68
2021/11/16 05:06:31;;;;;;;7.41;5.06;;;;;;;;;;363587;148;857148;-68
2021/11/16 05:07:33;;;;;;;5.95;3.54;;;;;;;;;;360381;148;857131;-67
2021/11/16 05:08:37;;;;;;;8.29;4.98;;;;;;;;;;360635;147;862639;-64
2021/11/16 05:09:39;;;;;;;8.48;4.78;;;;;;;;;;346521;153;857205;-66
2021/11/16 05:10:41;;;;;;;6.88;3.65;;;;;;;;;;345326;149;858101;-66
2021/11/16 05:11:42;;;;;;;9.17;5.69;;;;;;;;;;360061;146;858842;-66
2021/11/16 05:12:44;;;;;;;5.85;4.25;;;;;;;;;;360337;147;860962;-69
2021/11/16 05:13:47;;;;;;;6.69;4.41;;;;;;;;;;363241;147;857058;-66
2021/11/16 05:14:49;;;;;;;8.49;4.87;;;;;;;;;;360754;148;859272;-66
2021/11/16 05:15:51;;;;;;;8.24;5.53;;;;;;;;;;362072;147;864765;-67
2021/11/16 05:16:53;;;;;;;6.71;4.36;;;;;;;;;;362421;148;864708;-66
2021/11/16 05:17:55;;;;;;;7.79;4.60;;;;;;;;;;362872;148;864854;-67
2021/11/16 05:18:57;;;;;;;6.08;4.01;;;;;;;;;;359760;147;857221;-67
2021/11/16 05:19:58;;;;;;;6.14;4.97;;;;;;;;;;360242;148;859319;-67
2021/11/16 05:21:00;;;;;;;7.84;4.97;;;;;;;;;;362121;148;862914;-68
2021/11/16 05:22:02;;;;;;;6.90;4.72;;;;;;;;;;361753;147;864607;-67
2021/11/16 05:23:04;;;;;;;6.98;5.32;;;;;;;;;;361147;147;865257;-66
2021/11/16 05:24:06;;;;;;;10.26;5.63;;;;;;;;;;354470;149;857257;-68
2021/11/16 05:25:07;;;;;;;6.12;4.44;;;;;;;;;;355976;149;857253;-68
2021/11/16 05:26:10;;;;;;;5.66;4.65;;;;;;;;;;361111;147;866276;-68
2021/11/16 05:27:14;;;;;;;5.96;5.39;;;;;;;;;;362396;148;864355;-68
2021/11/16 05:28:15;;;;;;;8.58;5.85;;;;;;;;;;362489;148;857156;-67
2021/11/16 05:29:17;;;;;;;6.29;3.79;;;;;;;;;;361290;147;857296;-68
2021/11/16 05:30:26;;;;;;;6.65;4.75;;;;;;;;;;360420;148;858941;-66
2021/11/16 05:31:22;;;;;;;10.37;5.68;;;;;;;;;;358624;148;857297;-68
2021/11/16 05:32:24;;;;;;;11.09;4.98;;;;;;;;;;362017;148;859057;-68
2021/11/16 05:33:27;;;;;;;7.67;5.69;;;;;;;;;;361738;147;864804;-68
2021/11/16 05:34:28;;;;;;;9.63;5.83;;;;;;;;;;361233;148;857180;-68
2021/11/16 05:35:30;;;;;;;7.24;4.21;;;;;;;;;;361626;148;857188;-67
2021/11/16 05:36:32;;;;;;;6.80;5.17;;;;;;;;;;361043;147;864606;-69
2021/11/16 05:37:34;;;;;;;8.81;5.69;;;;;;;;;;359907;147;857257;-70
2021/11/16 05:38:36;;;;;;;6.87;4.77;;;;;;;;;;361871;147;865570;-70
2021/11/16 05:39:38;;;;;;;5.85;4.26;;;;;;;;;;361292;148;857609;-68
2021/11/16 05:40:40;;;;;;;8.87;4.96;;;;;;;;;;346332;153;858574;-68
2021/11/16 05:41:42;;;;;;;7.11;4.88;;;;;;;;;;345956;151;859843;-69
2021/11/16 05:42:44;;;;;;;7.64;5.41;;;;;;;;;;352940;150;859168;-68
2021/11/16 05:43:46;;;;;;;8.64;5.31;;;;;;;;;;360884;147;857223;-67
2021/11/16 05:44:48;;;;;;;10.71;5.77;;;;;;;;;;360784;147;857298;-70
2021/11/16 05:45:50;;;;;;;7.12;4.88;;;;;;;;;;361253;148;856878;-67
2021/11/16 05:46:51;;;;;;;8.36;5.31;;;;;;;;;;359478;147;857187;-67
2021/11/16 05:47:53;;;;;;;9.79;5.01;;;;;;;;;;361715;147;864712;-66
2021/11/16 05:48:55;;;;;;;10.17;6.01;;;;;;;;;;358597;148;857271;-67
2021/11/16 05:49:58;;;;;;;9.11;5.75;;;;;;;;;;360886;148;857738;-67
2021/11/16 05:50:59;;;;;;;6.51;4.45;;;;;;;;;;361128;146;858855;-68
2021/11/16 05:52:01;;;;;;;7.96;5.19;;;;;;;;;;360192;147;857139;-66
2021/11/16 05:53:05;;;;;;;10.48;5.15;;;;;;;;;;361087;148;857296;-67
2021/11/16 05:54:14;;;;;;;7.28;5.30;;;;;;;;;;357965;147;857268;-68
2021/11/16 05:55:10;;;;;;;6.37;4.33;;;;;;;;;;359171;147;866420;-68
2021/11/16 05:56:12;;;;;;;6.52;3.69;;;;;;;;;;360916;148;859340;-68
2021/11/16 05:57:34;;;;;;;7.11;5.15;;;;;;;;;;359571;148;857314;-68
2021/11/16 05:58:38;;;;;;;5.55;4.19;;;;;;;;;;354283;148;858967;-58
2021/11/16 05:59:40;;;;;;;7.01;4.92;;;;;;;;;;353497;148;857074;-59
2021/11/16 06:00:42;;;;;;;6.21;4.15;;;;;;;;;;351006;149;857671;-57
2021/11/16 06:01:44;;;;;;;5.11;3.83;;;;;;;;;;350304;151;858135;-57
2021/11/16 06:02:46;;;;;;;8.03;5.65;;;;;;;;;;351493;150;859382;-57
2021/11/16 06:03:54;;;;;;;6.64;4.87;;;;;;;;;;350954;152;858630;-58
2021/11/16 06:04:56;;;;;;;7.31;5.42;;;;;;;;;;351337;150;863351;-59
2021/11/16 06:05:57;;;;;;;7.95;5.17;;;;;;;;;;350794;151;857339;-60
2021/11/16 06:06:59;;;;;;;8.00;6.08;;;;;;;;;;349299;150;864809;-58
2021/11/16 06:08:01;;;;;;;6.38;4.85;;;;;;;;;;352928;151;864826;-57
2021/11/16 06:09:05;;;;;;;8.41;4.84;;;;;;;;;;349898;149;857229;-59
2021/11/16 06:10:06;;;;;;;5.02;4.14;;;;;;;;;;352827;150;864052;-60
2021/11/16 06:11:08;;;;;;;6.39;4.34;;;;;;;;;;350551;151;864864;-58
2021/11/16 06:12:10;;;;;;;8.51;5.54;;;;;;;;;;342461;154;864891;-58
2021/11/16 06:13:12;;;;;;;8.51;5.19;;;;;;;;;;343513;153;864468;-58
2021/11/16 06:14:14;;;;;;;8.56;5.44;;;;;;;;;;351049;152;865361;-58
2021/11/16 06:15:15;;;;;;;10.01;5.95;;;;;;;;;;347996;151;864936;-57
2021/11/16 06:16:17;;;;;;;8.23;5.73;;;;;;;;;;351501;149;857584;-58
2021/11/16 06:17:20;;;;;;;7.45;5.22;;;;;;;;;;351542;150;857340;-57
2021/11/16 06:18:22;;;;;;;9.83;4.85;;;;;;;;;;343363;157;859102;-57
2021/11/16 06:19:24;;;;;;;7.45;5.62;;;;;;;;;;349351;149;864837;-58